Terminal Aerodrome Forecast
Issued by NWS Duluth, MN

Home | Current Version | Previous Version | Text Only | Print | Product List | Glossary On
Versions: 1 2 3 4 5 6 7 8 9 10 11 12 13 14 15 16 17 18 19 20 21 22 23 24 25 26 27 28 29 30 31 32 33 34
452
FTUS43 KDLH 052054 AAA
TAFINL
TAF AMD
KINL 052054Z 0521/0618 26005KT P6SM -SN BKN030 OVC050
     FM060200 26003KT P6SM OVC020
     FM061400 14003KT P6SM FEW020 OVC100=

USA.gov is the U.S. government's official web portal to all federal, state and local government web resources and services.